sensor_id;sensor_type;location;lat;lon;timestamp;P1;P2;P0
67892;PMS7003;54688;52.376;16.744;2022-10-18T00:00:56;44;34;
67892;PMS7003;54688;52.376;16.744;2022-10-18T00:04:12;49;39;
67892;PMS7003;54688;52.376;16.744;2022-10-18T00:07:14;45;38;
67892;PMS7003;54688;52.376;16.744;2022-10-18T00:10:15;45;36;
67892;PMS7003;54688;52.376;16.744;2022-10-18T00:13:17;47;39;
67892;PMS7003;54688;52.376;16.744;2022-10-18T00:16:20;48;40;
67892;PMS7003;54688;52.376;16.744;2022-10-18T00:19:22;51;40;
67892;PMS7003;54688;52.376;16.744;2022-10-18T00:22:25;50;40;
67892;PMS7003;54688;52.376;16.744;2022-10-18T00:25:27;47;34;
67892;PMS7003;54688;52.376;16.744;2022-10-18T00:28:29;47;38;
67892;PMS7003;54688;52.376;16.744;2022-10-18T00:31:33;53;40;
67892;PMS7003;54688;52.376;16.744;2022-10-18T00:34:36;49;40;
67892;PMS7003;54688;52.376;16.744;2022-10-18T00:37:38;48;39;
67892;PMS7003;54688;52.376;16.744;2022-10-18T00:40:40;43;35;
67892;PMS7003;54688;52.376;16.744;2022-10-18T00:43:52;50;41;
67892;PMS7003;54688;52.376;16.744;2022-10-18T00:46:57;43;34;
67892;PMS7003;54688;52.376;16.744;2022-10-18T00:50:03;50;38;
67892;PMS7003;54688;52.376;16.744;2022-10-18T00:53:10;49;39;
67892;PMS7003;54688;52.376;16.744;2022-10-18T00:56:13;46;38;
67892;PMS7003;54688;52.376;16.744;2022-10-18T00:59:17;49;39;
67892;PMS7003;54688;52.376;16.744;2022-10-18T01:02:19;52;39;
67892;PMS7003;54688;52.376;16.744;2022-10-18T01:05:22;48;37;
67892;PMS7003;54688;52.376;16.744;2022-10-18T01:08:34;52;40;
67892;PMS7003;54688;52.376;16.744;2022-10-18T01:11:54;50;37;
67892;PMS7003;54688;52.376;16.744;2022-10-18T01:15:08;49;38;
67892;PMS7003;54688;52.376;16.744;2022-10-18T01:18:15;50;40;
67892;PMS7003;54688;52.376;16.744;2022-10-18T01:21:33;47;39;
67892;PMS7003;54688;52.376;16.744;2022-10-18T01:25:19;49;38;
67892;PMS7003;54688;52.376;16.744;2022-10-18T01:28:36;48;38;
67892;PMS7003;54688;52.376;16.744;2022-10-18T01:31:43;50;40;
67892;PMS7003;54688;52.376;16.744;2022-10-18T01:34:47;47;39;
67892;PMS7003;54688;52.376;16.744;2022-10-18T01:37:51;51;37;
67892;PMS7003;54688;52.376;16.744;2022-10-18T01:40:55;52;41;
67892;PMS7003;54688;52.376;16.744;2022-10-18T01:44:00;47;38;
67892;PMS7003;54688;52.376;16.744;2022-10-18T01:47:04;50;36;
67892;PMS7003;54688;52.376;16.744;2022-10-18T01:50:08;50;40;
67892;PMS7003;54688;52.376;16.744;2022-10-18T01:53:24;50;39;
67892;PMS7003;54688;52.376;16.744;2022-10-18T01:56:31;52;41;
67892;PMS7003;54688;52.376;16.744;2022-10-18T01:59:45;51;40;
67892;PMS7003;54688;52.376;16.744;2022-10-18T02:02:51;50;38;
67892;PMS7003;54688;52.376;16.744;2022-10-18T02:05:58;46;36;
67892;PMS7003;54688;52.376;16.744;2022-10-18T02:09:08;46;35;
67892;PMS7003;54688;52.376;16.744;2022-10-18T02:12:12;47;39;
67892;PMS7003;54688;52.376;16.744;2022-10-18T02:15:18;49;39;
67892;PMS7003;54688;52.376;16.744;2022-10-18T02:18:24;50;39;
67892;PMS7003;54688;52.376;16.744;2022-10-18T02:21:29;47;38;
67892;PMS7003;54688;52.376;16.744;2022-10-18T02:24:34;49;38;
67892;PMS7003;54688;52.376;16.744;2022-10-18T02:27:38;53;41;
67892;PMS7003;54688;52.376;16.744;2022-10-18T02:30:46;48;39;
67892;PMS7003;54688;52.376;16.744;2022-10-18T02:33:54;46;39;
67892;PMS7003;54688;52.376;16.744;2022-10-18T02:36:58;47;38;
67892;PMS7003;54688;52.376;16.744;2022-10-18T02:40:03;55;41;
67892;PMS7003;54688;52.376;16.744;2022-10-18T02:43:06;53;43;
67892;PMS7003;54688;52.376;16.744;2022-10-18T02:46:08;48;40;
67892;PMS7003;54688;52.376;16.744;2022-10-18T02:49:10;53;43;
67892;PMS7003;54688;52.376;16.744;2022-10-18T02:52:12;53;42;
67892;PMS7003;54688;52.376;16.744;2022-10-18T02:55:15;47;40;
67892;PMS7003;54688;52.376;16.744;2022-10-18T02:58:17;52;40;
67892;PMS7003;54688;52.376;16.744;2022-10-18T03:01:19;50;39;
67892;PMS7003;54688;52.376;16.744;2022-10-18T03:04:21;54;41;
67892;PMS7003;54688;52.376;16.744;2022-10-18T03:07:23;49;40;
67892;PMS7003;54688;52.376;16.744;2022-10-18T03:10:25;49;38;
67892;PMS7003;54688;52.376;16.744;2022-10-18T03:13:27;50;39;
67892;PMS7003;54688;52.376;16.744;2022-10-18T03:16:29;46;37;
67892;PMS7003;54688;52.376;16.744;2022-10-18T03:19:31;53;40;
67892;PMS7003;54688;52.376;16.744;2022-10-18T03:22:33;50;40;
67892;PMS7003;54688;52.376;16.744;2022-10-18T03:25:35;47;40;
67892;PMS7003;54688;52.376;16.744;2022-10-18T03:28:38;53;40;
67892;PMS7003;54688;52.376;16.744;2022-10-18T03:31:40;47;39;
67892;PMS7003;54688;52.376;16.744;2022-10-18T03:34:43;47;40;
67892;PMS7003;54688;52.376;16.744;2022-10-18T03:37:45;55;40;
67892;PMS7003;54688;52.376;16.744;2022-10-18T03:40:46;47;38;
67892;PMS7003;54688;52.376;16.744;2022-10-18T03:43:48;52;42;
67892;PMS7003;54688;52.376;16.744;2022-10-18T03:46:50;49;39;
67892;PMS7003;54688;52.376;16.744;2022-10-18T03:49:52;52;40;
67892;PMS7003;54688;52.376;16.744;2022-10-18T03:52:54;49;40;
67892;PMS7003;54688;52.376;16.744;2022-10-18T03:55:56;54;41;
67892;PMS7003;54688;52.376;16.744;2022-10-18T03:58:58;52;41;
67892;PMS7003;54688;52.376;16.744;2022-10-18T04:02:00;52;41;
67892;PMS7003;54688;52.376;16.744;2022-10-18T04:05:03;57;43;
67892;PMS7003;54688;52.376;16.744;2022-10-18T04:08:05;52;40;
67892;PMS7003;54688;52.376;16.744;2022-10-18T04:11:07;58;43;
67892;PMS7003;54688;52.376;16.744;2022-10-18T04:14:09;49;40;
67892;PMS7003;54688;52.376;16.744;2022-10-18T04:17:11;62;45;
67892;PMS7003;54688;52.376;16.744;2022-10-18T04:20:13;51;41;
67892;PMS7003;54688;52.376;16.744;2022-10-18T04:23:15;49;39;
67892;PMS7003;54688;52.376;16.744;2022-10-18T04:26:17;46;39;
67892;PMS7003;54688;52.376;16.744;2022-10-18T04:29:20;53;42;
67892;PMS7003;54688;52.376;16.744;2022-10-18T04:32:23;56;43;
67892;PMS7003;54688;52.376;16.744;2022-10-18T04:35:24;47;40;
67892;PMS7003;54688;52.376;16.744;2022-10-18T04:38:26;49;40;
67892;PMS7003;54688;52.376;16.744;2022-10-18T04:41:28;57;45;
67892;PMS7003;54688;52.376;16.744;2022-10-18T04:44:30;54;40;
67892;PMS7003;54688;52.376;16.744;2022-10-18T04:47:33;51;40;
67892;PMS7003;54688;52.376;16.744;2022-10-18T04:50:34;51;41;
67892;PMS7003;54688;52.376;16.744;2022-10-18T04:53:36;52;40;
67892;PMS7003;54688;52.376;16.744;2022-10-18T04:56:39;55;42;
67892;PMS7003;54688;52.376;16.744;2022-10-18T04:59:41;45;38;
67892;PMS7003;54688;52.376;16.744;2022-10-18T05:02:42;53;43;
67892;PMS7003;54688;52.376;16.744;2022-10-18T05:05:44;49;39;
67892;PMS7003;54688;52.376;16.744;2022-10-18T05:08:47;52;40;
67892;PMS7003;54688;52.376;16.744;2022-10-18T05:11:49;53;42;
67892;PMS7003;54688;52.376;16.744;2022-10-18T05:14:52;55;42;
67892;PMS7003;54688;52.376;16.744;2022-10-18T05:17:54;49;39;
67892;PMS7003;54688;52.376;16.744;2022-10-18T05:20:56;52;40;
67892;PMS7003;54688;52.376;16.744;2022-10-18T05:23:58;51;39;
67892;PMS7003;54688;52.376;16.744;2022-10-18T05:27:00;46;37;
67892;PMS7003;54688;52.376;16.744;2022-10-18T05:30:06;48;38;
67892;PMS7003;54688;52.376;16.744;2022-10-18T05:33:08;49;40;
67892;PMS7003;54688;52.376;16.744;2022-10-18T05:36:10;56;44;
67892;PMS7003;54688;52.376;16.744;2022-10-18T05:39:12;48;40;
67892;PMS7003;54688;52.376;16.744;2022-10-18T05:42:14;58;46;
67892;PMS7003;54688;52.376;16.744;2022-10-18T05:45:16;56;45;
67892;PMS7003;54688;52.376;16.744;2022-10-18T05:48:18;53;41;
67892;PMS7003;54688;52.376;16.744;2022-10-18T05:51:20;55;44;
67892;PMS7003;54688;52.376;16.744;2022-10-18T05:54:22;60;46;
67892;PMS7003;54688;52.376;16.744;2022-10-18T05:57:24;57;46;
67892;PMS7003;54688;52.376;16.744;2022-10-18T06:00:25;53;41;
67892;PMS7003;54688;52.376;16.744;2022-10-18T06:03:27;56;43;
67892;PMS7003;54688;52.376;16.744;2022-10-18T06:06:29;55;45;
67892;PMS7003;54688;52.376;16.744;2022-10-18T06:09:31;55;43;
67892;PMS7003;54688;52.376;16.744;2022-10-18T06:12:33;59;46;
67892;PMS7003;54688;52.376;16.744;2022-10-18T06:15:36;56;43;
67892;PMS7003;54688;52.376;16.744;2022-10-18T06:18:38;55;44;
67892;PMS7003;54688;52.376;16.744;2022-10-18T06:21:41;53;38;
67892;PMS7003;54688;52.376;16.744;2022-10-18T06:24:44;54;43;
67892;PMS7003;54688;52.376;16.744;2022-10-18T06:27:45;65;49;
67892;PMS7003;54688;52.376;16.744;2022-10-18T06:30:48;56;45;
67892;PMS7003;54688;52.376;16.744;2022-10-18T06:33:50;60;46;
67892;PMS7003;54688;52.376;16.744;2022-10-18T06:36:53;53;43;
67892;PMS7003;54688;52.376;16.744;2022-10-18T06:39:54;50;39;
67892;PMS7003;54688;52.376;16.744;2022-10-18T06:42:56;49;38;
67892;PMS7003;54688;52.376;16.744;2022-10-18T06:45:59;50;39;
67892;PMS7003;54688;52.376;16.744;2022-10-18T06:49:01;44;35;
67892;PMS7003;54688;52.376;16.744;2022-10-18T06:52:04;44;35;
67892;PMS7003;54688;52.376;16.744;2022-10-18T06:58:06;46;38;
67892;PMS7003;54688;52.376;16.744;2022-10-18T07:01:09;45;36;
67892;PMS7003;54688;52.376;16.744;2022-10-18T07:04:11;46;37;
67892;PMS7003;54688;52.376;16.744;2022-10-18T07:07:14;45;35;
67892;PMS7003;54688;52.376;16.744;2022-10-18T07:10:16;46;36;
67892;PMS7003;54688;52.376;16.744;2022-10-18T07:13:17;45;36;
67892;PMS7003;54688;52.376;16.744;2022-10-18T07:16:20;46;36;
67892;PMS7003;54688;52.376;16.744;2022-10-18T07:19:22;39;33;
67892;PMS7003;54688;52.376;16.744;2022-10-18T07:22:23;42;33;
67892;PMS7003;54688;52.376;16.744;2022-10-18T07:25:25;35;32;
67892;PMS7003;54688;52.376;16.744;2022-10-18T07:28:27;35;30;
67892;PMS7003;54688;52.376;16.744;2022-10-18T07:34:29;40;33;
67892;PMS7003;54688;52.376;16.744;2022-10-18T07:37:31;41;35;
67892;PMS7003;54688;52.376;16.744;2022-10-18T07:40:33;39;29;
67892;PMS7003;54688;52.376;16.744;2022-10-18T07:43:36;46;36;
67892;PMS7003;54688;52.376;16.744;2022-10-18T07:46:38;48;35;
67892;PMS7003;54688;52.376;16.744;2022-10-18T07:49:40;36;33;
67892;PMS7003;54688;52.376;16.744;2022-10-18T07:52:43;35;30;
67892;PMS7003;54688;52.376;16.744;2022-10-18T07:55:45;42;32;
67892;PMS7003;54688;52.376;16.744;2022-10-18T07:58:48;44;34;
67892;PMS7003;54688;52.376;16.744;2022-10-18T08:01:50;42;34;
67892;PMS7003;54688;52.376;16.744;2022-10-18T08:04:52;44;33;
67892;PMS7003;54688;52.376;16.744;2022-10-18T08:07:55;38;29;
67892;PMS7003;54688;52.376;16.744;2022-10-18T08:16:54;35;30;
67892;PMS7003;54688;52.376;16.744;2022-10-18T08:19:56;33;30;
67892;PMS7003;54688;52.376;16.744;2022-10-18T08:22:58;30;26;
67892;PMS7003;54688;52.376;16.744;2022-10-18T08:26:03;34;30;
67892;PMS7003;54688;52.376;16.744;2022-10-18T08:29:06;28;26;
67892;PMS7003;54688;52.376;16.744;2022-10-18T08:32:09;42;31;
67892;PMS7003;54688;52.376;16.744;2022-10-18T08:35:10;31;28;
67892;PMS7003;54688;52.376;16.744;2022-10-18T08:38:13;35;32;
67892;PMS7003;54688;52.376;16.744;2022-10-18T08:41:29;33;29;
67892;PMS7003;54688;52.376;16.744;2022-10-18T08:44:41;33;31;
67892;PMS7003;54688;52.376;16.744;2022-10-18T08:47:45;36;26;
67892;PMS7003;54688;52.376;16.744;2022-10-18T08:50:50;33;28;
67892;PMS7003;54688;52.376;16.744;2022-10-18T08:53:58;27;26;
67892;PMS7003;54688;52.376;16.744;2022-10-18T08:57:04;24;21;
67892;PMS7003;54688;52.376;16.744;2022-10-18T09:00:14;32;27;
67892;PMS7003;54688;52.376;16.744;2022-10-18T09:03:28;26;25;
67892;PMS7003;54688;52.376;16.744;2022-10-18T09:06:42;28;24;
67892;PMS7003;54688;52.376;16.744;2022-10-18T09:09:47;25;24;
67892;PMS7003;54688;52.376;16.744;2022-10-18T09:13:05;31;24;
67892;PMS7003;54688;52.376;16.744;2022-10-18T09:16:14;24;24;
67892;PMS7003;54688;52.376;16.744;2022-10-18T09:19:25;26;25;
67892;PMS7003;54688;52.376;16.744;2022-10-18T09:22:41;33;29;
67892;PMS7003;54688;52.376;16.744;2022-10-18T09:25:46;26;23;
67892;PMS7003;54688;52.376;16.744;2022-10-18T09:28:58;24;22;
67892;PMS7003;54688;52.376;16.744;2022-10-18T09:32:10;24;21;
67892;PMS7003;54688;52.376;16.744;2022-10-18T09:35:16;27;25;
67892;PMS7003;54688;52.376;16.744;2022-10-18T09:38:23;33;26;
67892;PMS7003;54688;52.376;16.744;2022-10-18T09:41:33;26;25;
67892;PMS7003;54688;52.376;16.744;2022-10-18T09:44:38;25;22;
67892;PMS7003;54688;52.376;16.744;2022-10-18T09:47:46;40;32;
67892;PMS7003;54688;52.376;16.744;2022-10-18T09:50:56;29;28;
67892;PMS7003;54688;52.376;16.744;2022-10-18T09:54:07;35;26;
67892;PMS7003;54688;52.376;16.744;2022-10-18T09:57:15;33;27;
67892;PMS7003;54688;52.376;16.744;2022-10-18T10:00:21;37;31;
67892;PMS7003;54688;52.376;16.744;2022-10-18T10:03:25;37;31;
67892;PMS7003;54688;52.376;16.744;2022-10-18T10:06:28;32;24;
67892;PMS7003;54688;52.376;16.744;2022-10-18T10:09:36;30;27;
67892;PMS7003;54688;52.376;16.744;2022-10-18T10:15:44;38;31;
67892;PMS7003;54688;52.376;16.744;2022-10-18T10:18:51;40;31;
67892;PMS7003;54688;52.376;16.744;2022-10-18T10:21:57;34;30;
67892;PMS7003;54688;52.376;16.744;2022-10-18T10:25:00;33;27;
67892;PMS7003;54688;52.376;16.744;2022-10-18T10:28:04;32;28;
67892;PMS7003;54688;52.376;16.744;2022-10-18T10:31:27;29;27;
67892;PMS7003;54688;52.376;16.744;2022-10-18T10:34:29;34;28;
67892;PMS7003;54688;52.376;16.744;2022-10-18T10:37:33;35;30;
67892;PMS7003;54688;52.376;16.744;2022-10-18T10:40:40;35;26;
67892;PMS7003;54688;52.376;16.744;2022-10-18T10:43:48;32;30;
67892;PMS7003;54688;52.376;16.744;2022-10-18T10:46:52;23;20;
67892;PMS7003;54688;52.376;16.744;2022-10-18T10:49:55;33;27;
67892;PMS7003;54688;52.376;16.744;2022-10-18T10:52:57;31;28;
67892;PMS7003;54688;52.376;16.744;2022-10-18T10:59:13;30;27;
67892;PMS7003;54688;52.376;16.744;2022-10-18T11:02:19;36;30;
67892;PMS7003;54688;52.376;16.744;2022-10-18T11:05:23;36;30;
67892;PMS7003;54688;52.376;16.744;2022-10-18T11:08:28;29;23;
67892;PMS7003;54688;52.376;16.744;2022-10-18T11:11:35;21;21;
67892;PMS7003;54688;52.376;16.744;2022-10-18T11:14:44;23;17;
67892;PMS7003;54688;52.376;16.744;2022-10-18T11:17:56;16;15;
67892;PMS7003;54688;52.376;16.744;2022-10-18T11:21:02;11;10;
67892;PMS7003;54688;52.376;16.744;2022-10-18T11:24:10;12;11;
67892;PMS7003;54688;52.376;16.744;2022-10-18T11:27:19;18;12;
67892;PMS7003;54688;52.376;16.744;2022-10-18T11:30:36;13;13;
67892;PMS7003;54688;52.376;16.744;2022-10-18T11:33:50;15;13;
67892;PMS7003;54688;52.376;16.744;2022-10-18T11:36:59;13;12;
67892;PMS7003;54688;52.376;16.744;2022-10-18T11:40:17;15;13;
67892;PMS7003;54688;52.376;16.744;2022-10-18T11:43:29;11;11;
67892;PMS7003;54688;52.376;16.744;2022-10-18T11:46:44;12;10;
67892;PMS7003;54688;52.376;16.744;2022-10-18T11:49:59;9;8;
67892;PMS7003;54688;52.376;16.744;2022-10-18T11:53:14;10;8;
67892;PMS7003;54688;52.376;16.744;2022-10-18T11:56:26;8;5;
67892;PMS7003;54688;52.376;16.744;2022-10-18T11:59:32;10;5;
67892;PMS7003;54688;52.376;16.744;2022-10-18T12:02:47;4;2;
67892;PMS7003;54688;52.376;16.744;2022-10-18T12:05:57;4;4;
67892;PMS7003;54688;52.376;16.744;2022-10-18T12:09:06;4;4;
67892;PMS7003;54688;52.376;16.744;2022-10-18T12:12:15;3;3;
67892;PMS7003;54688;52.376;16.744;2022-10-18T12:15:20;7;3;
67892;PMS7003;54688;52.376;16.744;2022-10-18T12:18:24;4;2;
67892;PMS7003;54688;52.376;16.744;2022-10-18T12:21:28;5;3;
67892;PMS7003;54688;52.376;16.744;2022-10-18T12:24:32;4;4;
67892;PMS7003;54688;52.376;16.744;2022-10-18T12:27:39;3;3;
67892;PMS7003;54688;52.376;16.744;2022-10-18T12:30:49;6;5;
67892;PMS7003;54688;52.376;16.744;2022-10-18T12:33:57;8;5;
67892;PMS7003;54688;52.376;16.744;2022-10-18T12:37:14;5;4;
67892;PMS7003;54688;52.376;16.744;2022-10-18T12:40:20;2;2;
67892;PMS7003;54688;52.376;16.744;2022-10-18T12:43:24;3;3;
67892;PMS7003;54688;52.376;16.744;2022-10-18T12:46:42;4;3;
67892;PMS7003;54688;52.376;16.744;2022-10-18T12:49:54;4;4;
67892;PMS7003;54688;52.376;16.744;2022-10-18T12:53:03;4;4;
67892;PMS7003;54688;52.376;16.744;2022-10-18T12:56:39;5;5;
67892;PMS7003;54688;52.376;16.744;2022-10-18T12:59:43;3;3;
67892;PMS7003;54688;52.376;16.744;2022-10-18T13:02:45;8;7;
67892;PMS7003;54688;52.376;16.744;2022-10-18T13:05:54;6;6;
67892;PMS7003;54688;52.376;16.744;2022-10-18T13:09:29;14;12;
67892;PMS7003;54688;52.376;16.744;2022-10-18T13:12:48;13;12;
67892;PMS7003;54688;52.376;16.744;2022-10-18T13:15:58;14;11;
67892;PMS7003;54688;52.376;16.744;2022-10-18T13:19:16;14;13;
67892;PMS7003;54688;52.376;16.744;2022-10-18T13:22:30;13;7;
67892;PMS7003;54688;52.376;16.744;2022-10-18T13:25:47;6;6;
67892;PMS7003;54688;52.376;16.744;2022-10-18T13:28:58;10;8;
67892;PMS7003;54688;52.376;16.744;2022-10-18T13:32:05;9;7;
67892;PMS7003;54688;52.376;16.744;2022-10-18T13:35:50;11;9;
67892;PMS7003;54688;52.376;16.744;2022-10-18T13:38:59;12;10;
67892;PMS7003;54688;52.376;16.744;2022-10-18T13:42:28;16;10;
67892;PMS7003;54688;52.376;16.744;2022-10-18T13:45:53;13;10;
67892;PMS7003;54688;52.376;16.744;2022-10-18T13:48:58;13;10;
67892;PMS7003;54688;52.376;16.744;2022-10-18T13:52:09;8;5;
67892;PMS7003;54688;52.376;16.744;2022-10-18T13:55:29;9;9;
67892;PMS7003;54688;52.376;16.744;2022-10-18T13:58:40;9;8;
67892;PMS7003;54688;52.376;16.744;2022-10-18T14:01:55;11;9;
67892;PMS7003;54688;52.376;16.744;2022-10-18T14:05:13;8;8;
67892;PMS7003;54688;52.376;16.744;2022-10-18T14:08:22;14;11;
67892;PMS7003;54688;52.376;16.744;2022-10-18T14:11:29;11;11;
67892;PMS7003;54688;52.376;16.744;2022-10-18T14:14:39;13;12;
67892;PMS7003;54688;52.376;16.744;2022-10-18T14:17:44;11;10;
67892;PMS7003;54688;52.376;16.744;2022-10-18T14:20:50;10;9;
67892;PMS7003;54688;52.376;16.744;2022-10-18T14:23:53;15;12;
67892;PMS7003;54688;52.376;16.744;2022-10-18T14:27:11;14;11;
67892;PMS7003;54688;52.376;16.744;2022-10-18T14:30:15;15;12;
67892;PMS7003;54688;52.376;16.744;2022-10-18T14:33:27;29;21;
67892;PMS7003;54688;52.376;16.744;2022-10-18T14:36:35;25;22;
67892;PMS7003;54688;52.376;16.744;2022-10-18T14:39:40;33;24;
67892;PMS7003;54688;52.376;16.744;2022-10-18T14:42:47;34;32;
67892;PMS7003;54688;52.376;16.744;2022-10-18T14:45:48;28;25;
67892;PMS7003;54688;52.376;16.744;2022-10-18T14:48:52;30;27;
67892;PMS7003;54688;52.376;16.744;2022-10-18T14:51:57;26;21;
67892;PMS7003;54688;52.376;16.744;2022-10-18T14:55:00;19;17;
67892;PMS7003;54688;52.376;16.744;2022-10-18T14:58:08;21;20;
67892;PMS7003;54688;52.376;16.744;2022-10-18T15:01:15;18;16;
67892;PMS7003;54688;52.376;16.744;2022-10-18T15:04:20;23;20;
67892;PMS7003;54688;52.376;16.744;2022-10-18T15:10:25;23;20;
67892;PMS7003;54688;52.376;16.744;2022-10-18T15:13:29;20;19;
67892;PMS7003;54688;52.376;16.744;2022-10-18T15:16:31;26;20;
67892;PMS7003;54688;52.376;16.744;2022-10-18T15:19:36;29;23;
67892;PMS7003;54688;52.376;16.744;2022-10-18T15:22:38;29;26;
67892;PMS7003;54688;52.376;16.744;2022-10-18T15:25:41;36;33;
67892;PMS7003;54688;52.376;16.744;2022-10-18T15:28:44;33;28;
67892;PMS7003;54688;52.376;16.744;2022-10-18T15:31:48;31;28;
67892;PMS7003;54688;52.376;16.744;2022-10-18T15:34:50;33;28;
67892;PMS7003;54688;52.376;16.744;2022-10-18T15:37:54;35;29;
67892;PMS7003;54688;52.376;16.744;2022-10-18T15:40:57;34;27;
67892;PMS7003;54688;52.376;16.744;2022-10-18T15:44:05;32;27;
67892;PMS7003;54688;52.376;16.744;2022-10-18T15:47:12;17;15;
67892;PMS7003;54688;52.376;16.744;2022-10-18T15:50:35;19;16;
67892;PMS7003;54688;52.376;16.744;2022-10-18T15:53:43;19;15;
67892;PMS7003;54688;52.376;16.744;2022-10-18T15:56:45;11;9;
67892;PMS7003;54688;52.376;16.744;2022-10-18T15:59:50;14;14;
67892;PMS7003;54688;52.376;16.744;2022-10-18T16:02:53;15;11;
67892;PMS7003;54688;52.376;16.744;2022-10-18T16:08:54;16;15;
67892;PMS7003;54688;52.376;16.744;2022-10-18T16:11:57;19;16;
67892;PMS7003;54688;52.376;16.744;2022-10-18T16:14:59;17;14;
67892;PMS7003;54688;52.376;16.744;2022-10-18T16:18:01;14;13;
67892;PMS7003;54688;52.376;16.744;2022-10-18T16:21:03;17;12;
67892;PMS7003;54688;52.376;16.744;2022-10-18T16:24:05;15;14;
67892;PMS7003;54688;52.376;16.744;2022-10-18T16:27:08;11;11;
67892;PMS7003;54688;52.376;16.744;2022-10-18T16:30:13;11;10;
67892;PMS7003;54688;52.376;16.744;2022-10-18T16:33:16;12;12;
67892;PMS7003;54688;52.376;16.744;2022-10-18T16:36:21;11;11;
67892;PMS7003;54688;52.376;16.744;2022-10-18T16:39:24;16;15;
67892;PMS7003;54688;52.376;16.744;2022-10-18T16:42:26;14;13;
67892;PMS7003;54688;52.376;16.744;2022-10-18T16:45:28;10;10;
67892;PMS7003;54688;52.376;16.744;2022-10-18T16:48:31;11;8;
67892;PMS7003;54688;52.376;16.744;2022-10-18T16:51:33;14;11;
67892;PMS7003;54688;52.376;16.744;2022-10-18T16:54:35;11;9;
67892;PMS7003;54688;52.376;16.744;2022-10-18T16:57:37;11;7;
67892;PMS7003;54688;52.376;16.744;2022-10-18T17:00:39;13;8;
67892;PMS7003;54688;52.376;16.744;2022-10-18T17:03:42;7;7;
67892;PMS7003;54688;52.376;16.744;2022-10-18T17:06:45;9;6;
67892;PMS7003;54688;52.376;16.744;2022-10-18T17:09:47;12;8;
67892;PMS7003;54688;52.376;16.744;2022-10-18T17:12:50;9;8;
67892;PMS7003;54688;52.376;16.744;2022-10-18T17:15:52;7;7;
67892;PMS7003;54688;52.376;16.744;2022-10-18T17:18:55;6;6;
67892;PMS7003;54688;52.376;16.744;2022-10-18T17:21:57;16;7;
67892;PMS7003;54688;52.376;16.744;2022-10-18T17:24:59;8;6;
67892;PMS7003;54688;52.376;16.744;2022-10-18T17:28:01;9;8;
67892;PMS7003;54688;52.376;16.744;2022-10-18T17:31:04;11;7;
67892;PMS7003;54688;52.376;16.744;2022-10-18T17:34:07;10;8;
67892;PMS7003;54688;52.376;16.744;2022-10-18T17:37:09;8;6;
67892;PMS7003;54688;52.376;16.744;2022-10-18T17:40:11;7;7;
67892;PMS7003;54688;52.376;16.744;2022-10-18T17:43:13;8;7;
67892;PMS7003;54688;52.376;16.744;2022-10-18T17:46:15;12;6;
67892;PMS7003;54688;52.376;16.744;2022-10-18T17:49:17;7;7;
67892;PMS7003;54688;52.376;16.744;2022-10-18T17:52:20;6;6;
67892;PMS7003;54688;52.376;16.744;2022-10-18T17:55:22;7;7;
67892;PMS7003;54688;52.376;16.744;2022-10-18T17:58:24;10;8;
67892;PMS7003;54688;52.376;16.744;2022-10-18T18:01:26;14;9;
67892;PMS7003;54688;52.376;16.744;2022-10-18T18:04:28;7;7;
67892;PMS7003;54688;52.376;16.744;2022-10-18T18:07:32;8;8;
67892;PMS7003;54688;52.376;16.744;2022-10-18T18:10:34;11;11;
67892;PMS7003;54688;52.376;16.744;2022-10-18T18:13:36;12;9;
67892;PMS7003;54688;52.376;16.744;2022-10-18T18:16:40;11;10;
67892;PMS7003;54688;52.376;16.744;2022-10-18T18:19:42;9;9;
67892;PMS7003;54688;52.376;16.744;2022-10-18T18:22:44;9;9;
67892;PMS7003;54688;52.376;16.744;2022-10-18T18:25:53;11;10;
67892;PMS7003;54688;52.376;16.744;2022-10-18T18:28:56;12;11;
67892;PMS7003;54688;52.376;16.744;2022-10-18T18:31:58;10;10;
67892;PMS7003;54688;52.376;16.744;2022-10-18T18:35:00;14;9;
67892;PMS7003;54688;52.376;16.744;2022-10-18T18:38:02;12;12;
67892;PMS7003;54688;52.376;16.744;2022-10-18T18:41:06;12;10;
67892;PMS7003;54688;52.376;16.744;2022-10-18T18:44:09;12;12;
67892;PMS7003;54688;52.376;16.744;2022-10-18T18:47:11;11;11;
67892;PMS7003;54688;52.376;16.744;2022-10-18T18:50:12;12;11;
67892;PMS7003;54688;52.376;16.744;2022-10-18T18:53:14;16;11;
67892;PMS7003;54688;52.376;16.744;2022-10-18T18:56:18;14;13;
67892;PMS7003;54688;52.376;16.744;2022-10-18T19:02:20;19;16;
67892;PMS7003;54688;52.376;16.744;2022-10-18T19:05:22;16;13;
67892;PMS7003;54688;52.376;16.744;2022-10-18T19:08:25;15;13;
67892;PMS7003;54688;52.376;16.744;2022-10-18T19:11:30;18;14;
67892;PMS7003;54688;52.376;16.744;2022-10-18T19:14:32;18;14;
67892;PMS7003;54688;52.376;16.744;2022-10-18T19:20:32;22;20;
67892;PMS7003;54688;52.376;16.744;2022-10-18T19:23:34;19;18;
67892;PMS7003;54688;52.376;16.744;2022-10-18T19:26:38;23;21;
67892;PMS7003;54688;52.376;16.744;2022-10-18T19:29:41;22;19;
67892;PMS7003;54688;52.376;16.744;2022-10-18T19:32:43;18;14;
67892;PMS7003;54688;52.376;16.744;2022-10-18T19:35:45;18;14;
67892;PMS7003;54688;52.376;16.744;2022-10-18T19:38:47;21;19;
67892;PMS7003;54688;52.376;16.744;2022-10-18T19:41:51;21;17;
67892;PMS7003;54688;52.376;16.744;2022-10-18T19:44:53;20;20;
67892;PMS7003;54688;52.376;16.744;2022-10-18T19:47:55;21;18;
67892;PMS7003;54688;52.376;16.744;2022-10-18T19:51:02;21;20;
67892;PMS7003;54688;52.376;16.744;2022-10-18T19:54:04;21;19;
67892;PMS7003;54688;52.376;16.744;2022-10-18T19:57:06;20;18;
67892;PMS7003;54688;52.376;16.744;2022-10-18T20:00:10;16;15;
67892;PMS7003;54688;52.376;16.744;2022-10-18T20:03:13;26;18;
67892;PMS7003;54688;52.376;16.744;2022-10-18T20:06:15;24;21;
67892;PMS7003;54688;52.376;16.744;2022-10-18T20:09:18;30;22;
67892;PMS7003;54688;52.376;16.744;2022-10-18T20:12:21;22;21;
67892;PMS7003;54688;52.376;16.744;2022-10-18T20:15:22;21;17;
67892;PMS7003;54688;52.376;16.744;2022-10-18T20:18:25;23;19;
67892;PMS7003;54688;52.376;16.744;2022-10-18T20:21:29;19;17;
67892;PMS7003;54688;52.376;16.744;2022-10-18T20:24:31;23;20;
67892;PMS7003;54688;52.376;16.744;2022-10-18T20:27:34;27;24;
67892;PMS7003;54688;52.376;16.744;2022-10-18T20:30:36;18;16;
67892;PMS7003;54688;52.376;16.744;2022-10-18T20:33:38;22;19;
67892;PMS7003;54688;52.376;16.744;2022-10-18T20:36:41;20;17;
67892;PMS7003;54688;52.376;16.744;2022-10-18T20:39:44;27;24;
67892;PMS7003;54688;52.376;16.744;2022-10-18T20:42:45;24;19;
67892;PMS7003;54688;52.376;16.744;2022-10-18T20:45:54;19;19;